sim
Sign-in with your pilot id or email,
or register
Callsign
Passwort

Schedule Details

Flight Number: DLH2677 (2)
Departure: Catania Fontanarossa Airport (LICC) at 11:15
Arrival: Munich Airport (EDDM) at 13:25
Route: Lufthansa Passenger Schedule. Enter filed route here before submitting Pirep.

Weather Information
Getting current METAR information for LICC 010250Z 23003KT CAVOK 18/17 Q1011
Getting current METAR information for EDDM 010250Z 00000KT 0800 0400NE R08L/0400U R08R/1400U FG NSC 04/03 Q1010 BECMG 0500 BKN001

Schedule Frequency

Route Map